Time;durP1;ratioP1;P1;durP2;ratioP2;P2;SDS_P1;SDS_P2;PMS_P1;PMS_P2;Temp;Humidity;BMP_temperature;BMP_pressure;BME280_temperature;BME280_humidity;BME280_pressure;Samples;Min_cycle;Max_cycle;Signal;HPM_P1;HPM_P2
2021/10/29 00:00:52;;;;;;;63.67;38.38;;;205.70;1792.00;;;;;;5076910;28;20026;-60
2021/10/29 00:03:18;;;;;;;67.65;39.72;;;205.70;1766.40;;;;;;5076877;28;20028;-60
2021/10/29 00:05:44;;;;;;;61.40;37.30;;;205.70;1766.40;;;;;;5076795;28;20355;-62
2021/10/29 00:08:10;;;;;;;64.13;38.33;;;205.70;1766.40;;;;;;5077209;28;20036;-61
2021/10/29 00:10:36;;;;;;;69.68;39.83;;;205.70;1792.00;;;;;;5076876;28;20049;-61
2021/10/29 00:13:03;;;;;;;66.03;39.30;;;205.60;1792.00;;;;;;5076850;28;20477;-61
2021/10/29 00:15:29;;;;;;;61.78;38.50;;;205.60;1766.40;;;;;;5058819;28;20028;-61
2021/10/29 00:17:56;;;;;;;67.60;40.80;;;205.60;1792.00;;;;;;5058263;28;20036;-61
2021/10/29 00:20:22;;;;;;;64.43;38.90;;;205.50;1792.00;;;;;;5077203;28;20025;-62
2021/10/29 00:22:48;;;;;;;60.95;39.25;;;205.60;1792.00;;;;;;5076417;28;20516;-60
2021/10/29 00:25:14;;;;;;;62.17;37.97;;;205.50;1792.00;;;;;;5076353;28;20033;-61
2021/10/29 00:27:41;;;;;;;64.20;37.78;;;205.50;1792.00;;;;;;5076661;28;20024;-61
2021/10/29 00:30:07;;;;;;;65.03;37.10;;;205.60;1792.00;;;;;;5076361;28;20351;-61
2021/10/29 00:32:33;;;;;;;62.20;39.08;;;205.50;1792.00;;;;;;5058434;28;20048;-60
2021/10/29 00:34:59;;;;;;;67.15;39.28;;;205.60;1792.00;;;;;;5076399;28;20386;-62
2021/10/29 00:37:25;;;;;;;59.35;37.42;;;205.50;1817.60;;;;;;5076396;28;20036;-60
2021/10/29 00:39:51;;;;;;;64.35;37.83;;;205.50;1792.00;;;;;;5076517;28;20016;-60
2021/10/29 00:42:16;;;;;;;65.45;37.72;;;205.50;1792.00;;;;;;5075666;28;20029;-62
2021/10/29 00:44:42;;;;;;;68.85;37.92;;;205.50;1766.40;;;;;;5076310;28;20027;-61
2021/10/29 00:47:08;;;;;;;59.97;36.00;;;205.50;1792.00;;;;;;5076132;28;20067;-61
2021/10/29 00:49:34;;;;;;;61.95;36.33;;;205.50;1792.00;;;;;;5075760;28;20041;-61
2021/10/29 00:51:59;;;;;;;58.03;34.60;;;205.50;1766.40;;;;;;5076128;28;20024;-61
2021/10/29 00:54:26;;;;;;;54.80;33.70;;;205.50;1792.00;;;;;;5076089;28;20048;-61
2021/10/29 00:56:52;;;;;;;62.42;34.45;;;205.40;1792.00;;;;;;5076073;28;20037;-62
2021/10/29 00:59:18;;;;;;;57.10;33.88;;;205.50;1792.00;;;;;;5075951;28;20374;-62
2021/10/29 01:01:47;;;;;;;56.45;34.25;;;205.40;1817.60;;;;;;5075697;28;20035;-60
2021/10/29 01:04:15;;;;;;;57.00;33.88;;;205.50;1792.00;;;;;;5075593;28;20020;-61
2021/10/29 01:06:42;;;;;;;58.78;33.80;;;205.50;1792.00;;;;;;5075737;28;20044;-63
2021/10/29 01:09:08;;;;;;;56.22;32.50;;;205.50;1792.00;;;;;;5074508;28;20371;-60
2021/10/29 01:11:34;;;;;;;57.70;34.08;;;205.50;1792.00;;;;;;5075903;28;20028;-61
2021/10/29 01:13:59;;;;;;;50.60;30.98;;;205.40;1792.00;;;;;;5075637;28;20016;-62
2021/10/29 01:16:25;;;;;;;63.90;32.75;;;205.50;1792.00;;;;;;5075451;28;20037;-61
2021/10/29 01:18:51;;;;;;;48.67;32.25;;;205.40;1792.00;;;;;;5056968;28;20376;-60
2021/10/29 01:21:17;;;;;;;46.80;30.13;;;205.40;1766.40;;;;;;5075544;28;20078;-61
2021/10/29 01:23:43;;;;;;;55.70;32.28;;;205.40;1817.60;;;;;;5075520;28;20035;-60
2021/10/29 01:26:11;;;;;;;58.88;31.02;;;205.30;1817.60;;;;;;5075175;28;20386;-62
2021/10/29 01:28:38;;;;;;;50.67;30.85;;;205.30;1817.60;;;;;;5075454;28;20016;-60
2021/10/29 01:31:04;;;;;;;57.00;30.52;;;205.30;1817.60;;;;;;5075184;28;20032;-60
2021/10/29 01:33:31;;;;;;;50.97;30.67;;;205.30;1817.60;;;;;;5075161;28;20445;-61
2021/10/29 01:35:58;;;;;;;45.90;28.67;;;205.30;1817.60;;;;;;5075572;28;20100;-61
2021/10/29 01:38:38;;;;;;;49.55;30.58;;;205.20;1792.00;;;;;;5075549;28;20036;-60
2021/10/29 01:41:06;;;;;;;58.08;31.30;;;205.20;1817.60;;;;;;5075066;28;20493;-62
2021/10/29 01:43:39;;;;;;;49.72;30.25;;;205.20;1817.60;;;;;;5057110;28;20025;-60
2021/10/29 01:46:04;;;;;;;49.13;31.20;;;205.20;1817.60;;;;;;5075021;28;20032;-61
2021/10/29 01:48:30;;;;;;;49.85;31.95;;;205.20;1843.20;;;;;;5056749;28;20031;-61
2021/10/29 01:50:56;;;;;;;53.88;32.13;;;205.10;1817.60;;;;;;5074547;28;20048;-62
2021/10/29 01:53:22;;;;;;;56.88;32.70;;;205.10;1843.20;;;;;;5074812;28;20482;-61
2021/10/29 01:55:48;;;;;;;51.80;32.63;;;205.10;1817.60;;;;;;5074890;28;20033;-61
2021/10/29 01:58:14;;;;;;;60.38;33.25;;;205.00;1817.60;;;;;;5074628;28;20103;-60
2021/10/29 02:00:40;;;;;;;52.95;32.03;;;205.00;1843.20;;;;;;5074657;28;20031;-61
2021/10/29 02:03:06;;;;;;;50.95;31.92;;;205.00;1817.60;;;;;;5074419;28;20462;-61
2021/10/29 02:05:32;;;;;;;52.80;31.65;;;205.00;1843.20;;;;;;5074354;28;20051;-61
2021/10/29 02:07:57;;;;;;;50.17;30.65;;;204.90;1843.20;;;;;;5074437;28;20115;-62
2021/10/29 02:10:23;;;;;;;52.90;31.38;;;205.00;1817.60;;;;;;5074672;28;20107;-61
2021/10/29 02:12:49;;;;;;;47.70;29.27;;;204.90;1843.20;;;;;;5074481;28;20078;-61
2021/10/29 02:15:14;;;;;;;53.45;30.35;;;204.90;1817.60;;;;;;5074340;28;20035;-61
2021/10/29 02:17:40;;;;;;;53.15;30.95;;;204.90;1843.20;;;;;;5074106;28;20455;-60
2021/10/29 02:20:07;;;;;;;52.33;30.83;;;204.90;1817.60;;;;;;5074199;28;20028;-61
2021/10/29 02:22:32;;;;;;;54.85;30.83;;;204.90;1817.60;;;;;;5074163;28;20582;-60
2021/10/29 02:24:58;;;;;;;50.03;31.23;;;204.90;1843.20;;;;;;5074340;28;20033;-60
2021/10/29 02:27:24;;;;;;;51.05;30.27;;;204.80;1817.60;;;;;;5074398;28;20466;-62
2021/10/29 02:29:49;;;;;;;45.85;29.02;;;204.90;1843.20;;;;;;5074139;28;20027;-61
2021/10/29 02:32:15;;;;;;;55.67;30.88;;;204.80;1817.60;;;;;;5074128;28;20052;-62
2021/10/29 02:34:41;;;;;;;49.30;30.45;;;204.90;1843.20;;;;;;5073854;28;20020;-61
2021/10/29 02:37:07;;;;;;;51.60;31.33;;;204.80;1817.60;;;;;;5074167;28;20358;-61
2021/10/29 02:39:32;;;;;;;54.08;32.33;;;204.80;1817.60;;;;;;5074100;28;20020;-62
2021/10/29 02:42:04;;;;;;;53.03;30.65;;;204.80;1843.20;;;;;;5073378;28;20024;-61
2021/10/29 02:44:30;;;;;;;49.95;30.33;;;204.80;1817.60;;;;;;5073732;28;20037;-60
2021/10/29 02:46:56;;;;;;;47.30;29.50;;;204.80;1817.60;;;;;;5073942;28;20082;-61
2021/10/29 02:49:22;;;;;;;51.35;31.90;;;180.10;1817.60;;;;;;5073433;28;20040;-60
2021/10/29 02:51:47;;;;;;;52.85;31.92;;;204.80;1817.60;;;;;;5073419;28;20043;-61
2021/10/29 02:54:13;;;;;;;45.50;29.52;;;204.80;1843.20;;;;;;5073594;28;20111;-61
2021/10/29 02:56:39;;;;;;;52.20;33.58;;;180.10;1817.60;;;;;;5073988;28;20108;-61
2021/10/29 02:59:04;;;;;;;49.03;32.47;;;180.10;1843.20;;;;;;5073865;28;20029;-62
2021/10/29 03:01:30;;;;;;;51.38;31.92;;;180.00;1843.20;;;;;;5073570;28;20111;-61
2021/10/29 03:03:56;;;;;;;52.22;31.05;;;180.00;1843.20;;;;;;5073476;28;20048;-60
2021/10/29 03:06:22;;;;;;;55.53;33.42;;;180.00;1843.20;;;;;;5073773;28;20036;-61
2021/10/29 03:08:47;;;;;;;57.95;33.72;;;180.00;1843.20;;;;;;5073999;28;20052;-60
2021/10/29 03:11:13;;;;;;;57.47;32.78;;;180.00;1843.20;;;;;;5073800;28;20037;-61
2021/10/29 03:13:39;;;;;;;57.55;33.35;;;180.00;1843.20;;;;;;5073908;28;20104;-61
2021/10/29 03:16:05;;;;;;;56.85;33.95;;;180.00;1843.20;;;;;;5073566;28;20074;-61
2021/10/29 03:18:31;;;;;;;55.88;31.92;;;179.90;1868.80;;;;;;5073604;28;20417;-60
2021/10/29 03:20:56;;;;;;;57.90;32.03;;;179.90;1843.20;;;;;;5073294;28;20021;-61
2021/10/29 03:23:22;;;;;;;55.45;31.02;;;179.90;1868.80;;;;;;5073402;28;20114;-62
2021/10/29 03:25:48;;;;;;;54.45;31.83;;;179.90;1843.20;;;;;;5073517;28;20036;-61
2021/10/29 03:28:14;;;;;;;52.00;30.92;;;179.90;1843.20;;;;;;5074142;28;20107;-62
2021/10/29 03:30:40;;;;;;;58.40;32.25;;;180.00;1868.80;;;;;;5073509;28;20500;-61
2021/10/29 03:33:06;;;;;;;54.90;32.35;;;179.90;1868.80;;;;;;5076588;28;20425;-62
2021/10/29 03:35:32;;;;;;;58.72;32.35;;;179.90;1868.80;;;;;;5077552;28;20024;-61
2021/10/29 03:40:57;;;;;;;59.10;33.47;;;179.90;1868.80;;;;;;5077554;28;20036;-61
2021/10/29 03:45:55;;;;;;;65.28;34.05;;;179.80;1868.80;;;;;;5077282;28;20056;-62
2021/10/29 03:51:12;;;;;;;61.63;33.17;;;179.80;1868.80;;;;;;5077090;28;20048;-61
2021/10/29 03:53:52;;;;;;;56.55;31.60;;;179.80;1894.40;;;;;;5077254;28;20374;-61
2021/10/29 03:56:22;;;;;;;60.47;32.78;;;179.80;1894.40;;;;;;5077044;28;20364;-60
2021/10/29 03:58:50;;;;;;;57.13;32.40;;;179.80;1894.40;;;;;;5076969;28;20028;-62
2021/10/29 04:01:16;;;;;;;51.97;31.60;;;179.80;1894.40;;;;;;5077076;28;20107;-63
2021/10/29 04:03:43;;;;;;;50.67;31.55;;;179.90;1894.40;;;;;;5076774;28;20063;-63
2021/10/29 04:06:09;;;;;;;55.92;33.22;;;179.80;1894.40;;;;;;5076744;28;20470;-61
2021/10/29 04:08:35;;;;;;;59.83;32.95;;;179.90;1894.40;;;;;;5076876;28;20024;-62
2021/10/29 04:11:01;;;;;;;56.42;32.13;;;179.90;1894.40;;;;;;5076500;28;20033;-61
2021/10/29 04:13:28;;;;;;;63.20;34.15;;;179.90;1894.40;;;;;;5076460;28;20496;-61
2021/10/29 04:15:54;;;;;;;64.38;35.28;;;179.90;1894.40;;;;;;5076778;28;20060;-62
2021/10/29 04:18:23;;;;;;;65.88;37.00;;;179.90;1868.80;;;;;;5076763;28;20029;-62
2021/10/29 04:20:49;;;;;;;63.90;37.15;;;179.90;1868.80;;;;;;5076591;28;20025;-62
2021/10/29 04:23:15;;;;;;;62.50;35.30;;;179.90;1894.40;;;;;;5076627;28;20028;-61
2021/10/29 04:25:41;;;;;;;55.88;35.20;;;179.90;1894.40;;;;;;5076630;28;20169;-60
2021/10/29 04:28:11;;;;;;;52.97;33.28;;;179.90;1894.40;;;;;;5076414;28;20029;-62
2021/10/29 04:30:38;;;;;;;54.85;33.85;;;179.90;1894.40;;;;;;5076394;28;20090;-61
2021/10/29 04:33:07;;;;;;;58.28;33.10;;;179.90;1894.40;;;;;;5076098;28;20082;-62
2021/10/29 04:35:37;;;;;;;54.80;32.00;;;179.90;1894.40;;;;;;5076336;28;20029;-61
2021/10/29 04:38:11;;;;;;;58.17;33.35;;;179.90;1894.40;;;;;;5076177;28;20118;-61
2021/10/29 04:40:38;;;;;;;57.97;35.35;;;179.80;1868.80;;;;;;5076308;28;20048;-61
2021/10/29 04:43:06;;;;;;;59.08;34.28;;;179.90;1894.40;;;;;;5076268;28;20055;-62
2021/10/29 04:45:32;;;;;;;60.60;35.42;;;179.80;1868.80;;;;;;5076237;28;20498;-61
2021/10/29 04:47:58;;;;;;;68.10;39.47;;;179.80;1868.80;;;;;;5074714;28;20042;-60
2021/10/29 04:50:24;;;;;;;72.15;41.40;;;179.80;1894.40;;;;;;5075719;28;20124;-62
2021/10/29 04:52:50;;;;;;;79.25;41.50;;;179.80;1894.40;;;;;;5076023;28;20082;-61
2021/10/29 04:55:16;;;;;;;78.90;40.55;;;179.80;1894.40;;;;;;5075978;28;20025;-61
2021/10/29 04:57:42;;;;;;;69.60;39.08;;;179.80;1894.40;;;;;;5076393;28;20025;-62
2021/10/29 05:00:09;;;;;;;72.45;39.58;;;179.80;1894.40;;;;;;5075921;28;20031;-60
2021/10/29 05:02:35;;;;;;;70.18;39.45;;;179.70;1868.80;;;;;;5075670;28;20032;-60
2021/10/29 05:05:03;;;;;;;75.38;37.58;;;179.80;1894.40;;;;;;5075687;28;20024;-62
2021/10/29 05:07:30;;;;;;;70.13;36.13;;;179.80;1894.40;;;;;;5057246;28;20040;-61
2021/10/29 05:09:56;;;;;;;63.78;34.38;;;179.70;1894.40;;;;;;5075670;28;20047;-61
2021/10/29 05:12:22;;;;;;;77.05;37.78;;;179.80;1894.40;;;;;;5075841;28;20035;-61
2021/10/29 05:14:47;;;;;;;58.47;33.03;;;179.70;1894.40;;;;;;5075701;28;20024;-62
2021/10/29 05:17:13;;;;;;;61.17;34.58;;;179.80;1894.40;;;;;;5075645;28;20378;-62
2021/10/29 05:19:39;;;;;;;64.15;34.80;;;179.80;1868.80;;;;;;5075426;28;20047;-61
2021/10/29 05:22:05;;;;;;;82.72;40.83;;;179.70;1868.80;;;;;;5075479;28;20032;-61
2021/10/29 05:24:31;;;;;;;97.93;49.25;;;179.80;1894.40;;;;;;5075613;28;20024;-61
2021/10/29 05:26:57;;;;;;;107.60;53.60;;;179.80;1894.40;;;;;;5074871;28;20082;-62
2021/10/29 05:29:23;;;;;;;105.20;54.67;;;179.80;1894.40;;;;;;5075343;28;20051;-61
2021/10/29 05:31:51;;;;;;;97.72;52.78;;;179.70;1894.40;;;;;;5075026;28;20048;-61
2021/10/29 05:34:17;;;;;;;99.97;55.28;;;179.70;1894.40;;;;;;5075088;28;20017;-67
2021/10/29 05:36:43;;;;;;;106.40;60.08;;;179.80;1894.40;;;;;;5075192;28;20048;-63
2021/10/29 05:39:09;;;;;;;88.35;49.78;;;179.80;1894.40;;;;;;5056803;28;20028;-64
2021/10/29 05:41:35;;;;;;;87.20;40.72;;;179.90;1920.00;;;;;;5074913;28;20111;-62
2021/10/29 05:44:01;;;;;;;65.63;37.40;;;179.90;1920.00;;;;;;5075187;28;20099;-63
2021/10/29 05:46:31;;;;;;;64.82;34.08;;;180.00;1920.00;;;;;;5073604;28;20044;-62
2021/10/29 05:48:58;;;;;;;59.47;33.40;;;180.00;1920.00;;;;;;5081895;28;20150;-65
2021/10/29 05:51:25;;;;;;;61.22;34.95;;;180.10;1920.00;;;;;;5076401;28;20510;-63
2021/10/29 05:54:06;;;;;;;67.90;38.97;;;204.80;1920.00;;;;;;5091664;28;20044;-62
2021/10/29 05:56:32;;;;;;;73.55;42.08;;;204.80;1920.00;;;;;;5095118;28;20028;-65
2021/10/29 05:59:03;;;;;;;88.15;41.80;;;204.90;1920.00;;;;;;5094940;28;20477;-65
2021/10/29 06:01:29;;;;;;;72.53;40.85;;;204.90;1920.00;;;;;;5094997;28;20053;-62
2021/10/29 06:03:54;;;;;;;73.13;36.33;;;204.90;1894.40;;;;;;5076486;28;20060;-65
2021/10/29 06:06:20;;;;;;;70.80;38.33;;;205.00;1894.40;;;;;;5094780;28;20540;-63
2021/10/29 06:08:46;;;;;;;87.68;48.60;;;205.10;1894.40;;;;;;5094331;28;20036;-63
2021/10/29 06:11:12;;;;;;;102.43;58.08;;;205.10;1894.40;;;;;;5094288;28;20047;-62
2021/10/29 06:13:38;;;;;;;99.80;58.60;;;205.10;1894.40;;;;;;5094399;28;20462;-63
2021/10/29 06:16:06;;;;;;;106.90;57.75;;;205.20;1894.40;;;;;;5076227;28;20108;-63
2021/10/29 06:18:32;;;;;;;101.90;53.50;;;205.20;1894.40;;;;;;5094048;28;20020;-64
2021/10/29 06:20:58;;;;;;;98.38;52.25;;;205.30;1894.40;;;;;;5094155;28;20385;-64
2021/10/29 06:23:40;;;;;;;92.10;49.72;;;205.30;1894.40;;;;;;5093916;28;20439;-62
2021/10/29 06:26:19;;;;;;;88.47;44.40;;;205.30;1894.40;;;;;;5093311;28;20039;-62
2021/10/29 06:28:44;;;;;;;79.03;43.55;;;205.40;1868.80;;;;;;5093888;28;20570;-65
2021/10/29 06:31:12;;;;;;;82.88;41.83;;;205.40;1868.80;;;;;;5093812;28;20048;-62
2021/10/29 06:33:41;;;;;;;66.53;37.50;;;205.40;1868.80;;;;;;5094167;28;20027;-63
2021/10/29 06:36:07;;;;;;;72.28;37.03;;;205.40;1868.80;;;;;;5093812;28;20028;-63
2021/10/29 06:38:32;;;;;;;66.70;35.25;;;205.50;1868.80;;;;;;5094297;28;20110;-63
2021/10/29 06:40:58;;;;;;;60.67;35.28;;;205.50;1868.80;;;;;;5094390;28;20032;-62
2021/10/29 06:43:31;;;;;;;56.65;34.15;;;205.60;1868.80;;;;;;5093884;28;20023;-63
2021/10/29 06:59:50;;;;;;;33.00;21.33;;;230.50;1868.80;;;;;;5094018;28;20298;-63
2021/10/29 07:40:56;;;;;;;37.05;18.05;;;256.30;1868.80;;;;;;4992761;28;20179;-63
2021/10/29 07:46:22;;;;;;;30.00;18.52;;;256.50;1868.80;;;;;;4953245;29;20608;-63
2021/10/29 07:48:49;;;;;;;28.30;18.27;;;256.70;1843.20;;;;;;4953252;29;20478;-64
2021/10/29 07:51:15;;;;;;;37.35;19.38;;;256.70;1868.80;;;;;;4954335;28;20142;-63
2021/10/29 07:53:42;;;;;;;34.13;19.50;;;256.80;1843.20;;;;;;4991854;28;20150;-63
2021/10/29 07:56:07;;;;;;;32.72;19.05;;;256.90;1843.20;;;;;;4992080;28;20030;-64
2021/10/29 07:58:35;;;;;;;27.55;16.45;;;281.60;1868.80;;;;;;4991843;28;20072;-63
2021/10/29 08:01:02;;;;;;;23.42;16.23;;;281.70;1868.80;;;;;;5002249;28;20546;-63
2021/10/29 08:03:28;;;;;;;26.08;14.95;;;281.90;1894.40;;;;;;4994814;28;20077;-63
2021/10/29 08:05:54;;;;;;;22.95;14.85;;;282.10;1843.20;;;;;;5011355;28;20447;-64
2021/10/29 08:08:21;;;;;;;25.80;14.85;;;282.20;1868.80;;;;;;4994527;28;20062;-63
2021/10/29 08:10:48;;;;;;;24.13;14.32;;;282.40;1843.20;;;;;;5011517;28;20029;-63
2021/10/29 08:13:14;;;;;;;21.65;13.48;;;307.20;1868.80;;;;;;5011234;28;20037;-63
2021/10/29 08:15:41;;;;;;;21.95;14.15;;;307.40;1843.20;;;;;;5011686;28;20073;-63
2021/10/29 08:18:07;;;;;;;21.35;14.88;;;307.60;1843.20;;;;;;4996406;28;20022;-63
2021/10/29 08:20:38;;;;;;;23.17;13.15;;;307.70;1817.60;;;;;;5064402;28;20036;-66
2021/10/29 08:23:05;;;;;;;19.95;12.57;;;307.90;1792.00;;;;;;5096698;28;20038;-63
2021/10/29 08:25:32;;;;;;;18.65;12.02;;;308.10;1766.40;;;;;;5097025;28;20027;-64
2021/10/29 08:27:57;;;;;;;24.23;12.27;;;332.80;1792.00;;;;;;5096663;28;20053;-63
2021/10/29 08:30:24;;;;;;;14.13;11.05;;;333.00;1766.40;;;;;;5097024;28;20107;-64
2021/10/29 08:32:50;;;;;;;15.90;11.23;;;333.10;1740.80;;;;;;5096890;28;20024;-63
2021/10/29 08:35:18;;;;;;;17.92;10.85;;;333.30;1740.80;;;;;;5096765;28;20359;-64
2021/10/29 08:37:50;;;;;;;18.67;10.85;;;333.40;1740.80;;;;;;5077837;28;20134;-64
2021/10/29 08:40:17;;;;;;;17.42;11.63;;;333.50;1715.20;;;;;;5096316;28;20028;-64
2021/10/29 08:42:44;;;;;;;20.90;13.57;;;333.70;1689.60;;;;;;5096464;28;20557;-64
2021/10/29 08:45:10;;;;;;;20.52;12.25;;;358.40;1689.60;;;;;;5096234;28;20032;-64
2021/10/29 08:47:38;;;;;;;18.15;10.40;;;358.40;1664.00;;;;;;5096087;28;20499;-66
2021/10/29 08:50:10;;;;;;;17.27;10.88;;;358.60;1664.00;;;;;;5096169;28;20056;-66
2021/10/29 08:52:37;;;;;;;18.38;11.00;;;358.70;1612.80;;;;;;5096236;28;20034;-64
2021/10/29 08:55:07;;;;;;;15.45;10.65;;;358.80;1587.20;;;;;;5095885;28;20048;-64
2021/10/29 08:57:33;;;;;;;18.15;10.43;;;358.90;1587.20;;;;;;5096433;28;20024;-64
2021/10/29 08:59:59;;;;;;;17.55;11.55;;;359.00;1587.20;;;;;;5077569;28;20039;-64
2021/10/29 09:02:33;;;;;;;17.20;10.57;;;359.10;1587.20;;;;;;5095901;28;20493;-66
2021/10/29 09:32:27;;;;;;;17.02;9.65;;;384.90;1459.20;;;;;;5095811;28;20523;-64
2021/10/29 09:35:05;;;;;;;15.80;9.02;;;409.60;1459.20;;;;;;5095151;28;20093;-64
2021/10/29 09:37:36;;;;;;;14.65;9.35;;;409.70;1459.20;;;;;;5077206;28;20028;-64
2021/10/29 09:40:07;;;;;;;24.95;12.77;;;409.80;1433.60;;;;;;5076975;28;20035;-64
2021/10/29 09:42:38;;;;;;;21.20;11.23;;;409.90;1433.60;;;;;;5095811;28;20020;-65
2021/10/29 09:45:20;;;;;;;18.02;9.73;;;410.00;1408.00;;;;;;5076649;28;20044;-64
2021/10/29 09:47:54;;;;;;;17.33;9.75;;;410.10;1408.00;;;;;;5076967;28;20065;-64
2021/10/29 09:50:27;;;;;;;21.70;11.07;;;410.20;1408.00;;;;;;5095153;28;20506;-65
2021/10/29 09:53:09;;;;;;;18.30;11.00;;;410.20;1408.00;;;;;;5095276;28;20036;-66
2021/10/29 09:55:50;;;;;;;18.83;11.40;;;410.30;1408.00;;;;;;5094849;28;20486;-64
2021/10/29 09:58:17;;;;;;;16.52;8.98;;;410.40;1382.40;;;;;;5094955;28;20020;-65
2021/10/29 10:00:43;;;;;;;29.17;14.65;;;410.50;1382.40;;;;;;5094438;28;20093;-65
2021/10/29 10:03:10;;;;;;;33.20;15.68;;;435.20;1356.80;;;;;;5093259;28;20111;-64
2021/10/29 10:05:38;;;;;;;35.65;14.52;;;435.30;1382.40;;;;;;5093255;28;20028;-64
2021/10/29 10:08:05;;;;;;;25.65;13.23;;;435.30;1356.80;;;;;;5075010;28;20327;-64
2021/10/29 10:10:33;;;;;;;27.08;12.07;;;435.40;1356.80;;;;;;5093555;28;20093;-65
2021/10/29 10:13:00;;;;;;;20.27;9.98;;;435.40;1331.20;;;;;;5090732;28;20106;-64
2021/10/29 10:15:27;;;;;;;15.75;9.65;;;435.60;1331.20;;;;;;5075185;28;20420;-64
2021/10/29 10:17:54;;;;;;;17.25;10.07;;;435.60;1331.20;;;;;;5093050;28;20032;-64
2021/10/29 10:20:20;;;;;;;19.80;9.10;;;435.70;1305.60;;;;;;5094847;28;20024;-64
2021/10/29 10:22:49;;;;;;;26.00;10.27;;;435.80;1305.60;;;;;;5094638;28;20024;-62
2021/10/29 10:25:36;;;;;;;18.92;10.23;;;435.90;1305.60;;;;;;5094693;28;20040;-62
2021/10/29 10:28:33;;;;;;;25.02;10.63;;;435.90;1305.60;;;;;;5094519;28;20035;-62
2021/10/29 10:42:44;;;;;;;19.67;9.60;;;460.90;1305.60;;;;;;5091914;28;20531;-62
2021/10/29 10:45:31;;;;;;;15.93;9.05;;;461.00;1305.60;;;;;;5091335;28;20060;-62
2021/10/29 10:48:01;;;;;;;15.43;8.38;;;461.10;1280.00;;;;;;5091948;28;20036;-62
2021/10/29 10:50:36;;;;;;;16.08;8.82;;;461.10;1254.40;;;;;;5092876;28;20048;-63
2021/10/29 10:53:10;;;;;;;19.55;8.32;;;461.20;1228.80;;;;;;5094626;28;20052;-62
2021/10/29 10:59:24;;;;;;;12.75;6.53;;;461.30;1177.60;;;;;;5030138;28;20051;-62
2021/10/29 11:10:17;;;;;;;18.40;7.55;;;461.50;1126.40;;;;;;4999767;28;20043;-62
2021/10/29 11:12:44;;;;;;;16.73;9.45;;;461.50;1177.60;;;;;;5007593;28;20041;-61
2021/10/29 11:15:12;;;;;;;18.10;8.38;;;461.60;1152.00;;;;;;5010309;28;20062;-61
2021/10/29 11:17:47;;;;;;;15.13;7.72;;;461.60;1126.40;;;;;;5010059;28;20080;-61
2021/10/29 11:20:37;;;;;;;13.68;7.07;;;461.70;1075.20;;;;;;5008944;28;20404;-61
2021/10/29 11:23:07;;;;;;;19.00;7.25;;;486.40;1075.20;;;;;;4984941;28;20031;-63
2021/10/29 11:26:04;;;;;;;19.15;8.02;;;486.40;1049.60;;;;;;4979818;28;20069;-63
2021/10/29 11:28:39;;;;;;;13.57;7.35;;;486.40;1049.60;;;;;;4982607;28;20484;-65
2021/10/29 11:31:13;;;;;;;14.75;6.70;;;486.50;1024.00;;;;;;4980227;28;20085;-64
2021/10/29 11:33:42;;;;;;;18.70;8.85;;;486.50;1049.60;;;;;;4979609;28;20374;-63
2021/10/29 11:36:11;;;;;;;15.13;7.97;;;486.50;1049.60;;;;;;4980384;28;20065;-63
2021/10/29 11:38:40;;;;;;;13.25;7.05;;;486.50;1049.60;;;;;;4981755;28;20046;-65
2021/10/29 11:41:14;;;;;;;17.05;7.38;;;486.60;1049.60;;;;;;4980693;28;20093;-64
2021/10/29 11:43:40;;;;;;;;;;;486.70;1049.60;;;;;;4998447;28;20430;-64
2021/10/29 11:46:08;;;;;;;13.80;6.70;;;486.70;1049.60;;;;;;5039556;28;19913;-64
2021/10/29 11:48:56;;;;;;;9.32;6.53;;;486.70;1024.00;;;;;;5038674;28;20483;-64
2021/10/29 11:51:23;;;;;;;13.52;6.55;;;486.70;998.40;;;;;;5018423;28;20041;-65
2021/10/29 11:54:03;;;;;;;15.95;6.45;;;486.80;998.40;;;;;;5023102;28;20030;-64
2021/10/29 12:07:33;;;;;;;12.48;7.47;;;486.80;998.40;;;;;;4974599;28;20046;-64
2021/10/29 12:10:14;;;;;;;12.57;6.78;;;486.80;998.40;;;;;;4974365;28;20053;-66
2021/10/29 12:12:43;;;;;;;12.43;6.13;;;486.80;998.40;;;;;;4973534;28;20034;-64
2021/10/29 12:15:16;;;;;;;11.85;6.93;;;486.90;972.80;;;;;;4972236;28;20019;-64
2021/10/29 12:18:03;;;;;;;12.77;6.28;;;486.90;972.80;;;;;;4974327;28;20098;-64
2021/10/29 12:20:38;;;;;;;13.00;6.50;;;486.90;947.20;;;;;;4974261;28;20033;-64
2021/10/29 12:23:14;;;;;;;15.93;6.97;;;487.00;947.20;;;;;;4974188;28;20552;-64
2021/10/29 12:28:30;;;;;;;17.25;8.18;;;487.00;947.20;;;;;;4972727;28;20138;-67
2021/10/29 13:03:10;;;;;;;;;;;487.10;921.60;;;;;;5094495;28;20374;-63
2021/10/29 13:05:37;;;;;;;18.65;7.70;;;487.10;921.60;;;;;;5090455;28;19937;-62
2021/10/29 13:08:20;;;;;;;16.38;6.72;;;487.10;921.60;;;;;;5094506;28;20012;-62
2021/10/29 13:10:47;;;;;;;13.38;5.72;;;487.10;921.60;;;;;;5093243;28;20024;-62
2021/10/29 13:13:24;;;;;;;14.32;6.88;;;487.10;921.60;;;;;;5094393;28;20387;-62
2021/10/29 13:15:54;;;;;;;14.13;7.53;;;487.10;921.60;;;;;;5094512;28;20036;-62
2021/10/29 13:18:24;;;;;;;15.00;6.95;;;487.10;921.60;;;;;;5094422;28;20488;-62
2021/10/29 13:23:47;;;;;;;10.52;5.70;;;487.00;921.60;;;;;;5091707;28;20013;-64
2021/10/29 13:34:28;;;;;;;20.75;7.88;;;486.90;947.20;;;;;;5092448;28;20058;-66
2021/10/29 13:50:48;;;;;;;18.95;7.38;;;486.80;896.00;;;;;;5094995;28;19922;-70
2021/10/29 14:31:47;;;;;;;12.43;5.90;;;486.40;921.60;;;;;;4944129;29;20471;-74
2021/10/29 14:34:28;;;;;;;11.82;6.05;;;461.70;921.60;;;;;;4942627;29;20039;-67
2021/10/29 14:37:11;;;;;;;14.98;6.10;;;461.60;921.60;;;;;;5015163;28;20155;-69
2021/10/29 14:39:49;;;;;;;11.93;6.72;;;461.60;921.60;;;;;;5092431;28;20446;-69
2021/10/29 14:42:41;;;;;;;11.20;6.65;;;461.60;947.20;;;;;;5093022;28;20036;-68
2021/10/29 14:45:19;;;;;;;14.00;7.25;;;461.50;921.60;;;;;;5074502;28;20028;-69
2021/10/29 15:24:56;;;;;;;25.57;12.50;;;436.10;972.80;;;;;;5090604;28;20585;-68
2021/10/29 15:29:59;;;;;;;27.80;15.63;;;436.00;998.40;;;;;;5093929;28;20424;-69
2021/10/29 15:45:46;;;;;;;18.15;10.82;;;435.70;1049.60;;;;;;5096332;28;20008;-69
2021/10/29 15:50:41;;;;;;;23.05;11.23;;;435.60;1075.20;;;;;;5096133;28;20059;-70
2021/10/29 15:53:12;;;;;;;22.77;12.27;;;435.50;1075.20;;;;;;5096150;28;20024;-70
2021/10/29 15:55:48;;;;;;;25.42;15.20;;;435.40;1075.20;;;;;;5095832;28;20387;-73
2021/10/29 16:03:20;;;;;;;46.92;22.30;;;435.30;1100.80;;;;;;5094007;28;20033;-69
2021/10/29 16:19:26;;;;;;;25.52;11.90;;;410.40;1152.00;;;;;;5097460;28;20053;-69
2021/10/29 16:21:52;;;;;;;26.23;13.68;;;410.30;1177.60;;;;;;5078031;28;20032;-69
2021/10/29 16:24:19;;;;;;;24.42;13.15;;;410.30;1177.60;;;;;;5097084;28;20016;-69
2021/10/29 16:26:46;;;;;;;25.63;12.07;;;410.20;1177.60;;;;;;5096664;28;20063;-68
2021/10/29 16:29:14;;;;;;;32.10;14.65;;;410.20;1177.60;;;;;;5096723;28;20028;-69
2021/10/29 16:31:45;;;;;;;28.40;16.58;;;410.10;1203.20;;;;;;5096858;28;20028;-69
2021/10/29 16:34:12;;;;;;;30.67;16.27;;;410.10;1203.20;;;;;;5096689;28;20035;-69
2021/10/29 16:36:38;;;;;;;34.28;18.45;;;410.10;1203.20;;;;;;5096586;28;20092;-67
2021/10/29 16:39:05;;;;;;;36.33;19.92;;;410.00;1228.80;;;;;;5096255;28;20020;-69
2021/10/29 16:41:30;;;;;;;51.45;26.08;;;409.90;1228.80;;;;;;5078059;28;20042;-69
2021/10/29 16:43:56;;;;;;;56.97;29.10;;;409.90;1228.80;;;;;;5078242;28;20452;-69
2021/10/29 16:46:22;;;;;;;57.35;31.23;;;409.80;1228.80;;;;;;5096322;28;20036;-67
2021/10/29 16:48:48;;;;;;;58.55;31.00;;;409.70;1254.40;;;;;;5096339;28;20103;-69
2021/10/29 16:51:15;;;;;;;52.72;31.30;;;409.70;1254.40;;;;;;5095716;28;20044;-69
2021/10/29 16:53:42;;;;;;;69.95;32.97;;;409.60;1254.40;;;;;;5096278;28;20028;-69
2021/10/29 16:56:09;;;;;;;62.90;33.78;;;409.60;1254.40;;;;;;5095957;28;20028;-68
2021/10/29 16:58:35;;;;;;;61.50;34.13;;;409.60;1228.80;;;;;;5095917;28;20105;-69
2021/10/29 17:01:01;;;;;;;66.28;34.25;;;384.90;1203.20;;;;;;5077837;28;20061;-69
2021/10/29 17:03:27;;;;;;;57.75;31.02;;;384.80;1228.80;;;;;;5096128;28;20095;-68
2021/10/29 17:05:55;;;;;;;56.72;29.85;;;384.70;1228.80;;;;;;5096175;28;20404;-69